Time;durP1;ratioP1;P1;durP2;ratioP2;P2;SDS_P1;SDS_P2;PMS_P1;PMS_P2;Temp;Humidity;BMP_temperature;BMP_pressure;BME280_temperature;BME280_humidity;BME280_pressure;Samples;Min_cycle;Max_cycle;Signal;HPM_P1;HPM_P2
2021/03/17 00:02:10;;;;;;;12.53;9.40;;;4.40;99.90;;;;;;5058672;28;20212;-77
2021/03/17 00:04:36;;;;;;;9.20;8.30;;;4.40;99.90;;;;;;5054903;28;20574;-80
2021/03/17 00:07:02;;;;;;;10.03;8.77;;;4.40;99.90;;;;;;5032686;28;20221;-80
2021/03/17 00:09:27;;;;;;;9.83;8.83;;;4.50;99.90;;;;;;5059433;28;20259;-80
2021/03/17 00:11:53;;;;;;;11.07;8.17;;;4.50;99.90;;;;;;5055139;28;20428;-78
2021/03/17 00:14:18;;;;;;;11.50;9.87;;;4.50;99.90;;;;;;5037315;28;20690;-80
2021/03/17 00:16:44;;;;;;;13.20;9.67;;;4.50;99.90;;;;;;5032588;28;20222;-79
2021/03/17 00:19:10;;;;;;;11.67;9.03;;;4.50;99.90;;;;;;5046686;28;20695;-78
2021/03/17 00:21:35;;;;;;;14.63;9.70;;;4.50;99.90;;;;;;5061196;28;20666;-77
2021/03/17 00:24:01;;;;;;;13.73;9.37;;;4.50;99.90;;;;;;5034590;28;20208;-80
2021/03/17 00:26:27;;;;;;;12.93;11.50;;;4.60;99.90;;;;;;5056776;28;20266;-79
2021/03/17 00:28:52;;;;;;;14.60;9.03;;;4.60;99.90;;;;;;5029697;28;20218;-79
2021/03/17 00:31:18;;;;;;;9.67;8.10;;;4.60;99.90;;;;;;5037828;28;20194;-80
2021/03/17 00:33:43;;;;;;;10.90;9.80;;;4.60;99.90;;;;;;5038752;28;20186;-80
2021/03/17 00:36:09;;;;;;;9.00;7.93;;;4.60;99.90;;;;;;5053725;28;20671;-77
2021/03/17 00:38:35;;;;;;;10.20;8.07;;;4.60;99.90;;;;;;5055917;28;20215;-79
2021/03/17 00:41:00;;;;;;;14.20;7.80;;;4.60;99.90;;;;;;5060726;28;20181;-80
2021/03/17 00:43:26;;;;;;;9.80;8.60;;;4.60;99.90;;;;;;5059312;28;20444;-79
2021/03/17 00:45:52;;;;;;;9.50;7.87;;;4.60;99.90;;;;;;5061756;28;20181;-78
2021/03/17 00:48:17;;;;;;;11.00;7.53;;;4.60;99.90;;;;;;5056679;28;20209;-79
2021/03/17 00:50:43;;;;;;;10.43;8.57;;;4.60;99.90;;;;;;5027245;28;20220;-78
2021/03/17 00:53:08;;;;;;;13.90;8.77;;;4.60;99.90;;;;;;5038259;28;20227;-78
2021/03/17 00:55:34;;;;;;;11.27;9.40;;;4.60;99.90;;;;;;5036975;28;20206;-79
2021/03/17 00:58:00;;;;;;;11.80;9.17;;;4.60;99.90;;;;;;5062379;28;20271;-78
2021/03/17 01:00:26;;;;;;;10.53;9.13;;;4.50;99.90;;;;;;5054580;28;20205;-78
2021/03/17 01:02:52;;;;;;;11.13;8.70;;;4.40;99.90;;;;;;5068028;28;20428;-77
2021/03/17 01:05:18;;;;;;;12.60;9.30;;;4.40;99.90;;;;;;5061650;28;20196;-77
2021/03/17 01:07:44;;;;;;;10.97;8.80;;;4.50;99.90;;;;;;5062604;28;20190;-79
2021/03/17 01:10:17;;;;;;;9.90;8.53;;;4.40;99.90;;;;;;5063364;28;20497;-79
2021/03/17 01:12:43;;;;;;;10.60;8.87;;;4.50;99.90;;;;;;5038711;28;20290;-79
2021/03/17 01:15:16;;;;;;;11.97;9.53;;;4.50;99.90;;;;;;5058812;28;20556;-78
2021/03/17 01:17:42;;;;;;;9.60;8.60;;;4.50;99.90;;;;;;5054755;28;20256;-81
2021/03/17 01:20:08;;;;;;;13.83;10.43;;;4.50;99.90;;;;;;5069203;28;20944;-80
2021/03/17 01:22:34;;;;;;;12.73;9.20;;;4.50;99.90;;;;;;5054484;28;20179;-78
2021/03/17 01:25:00;;;;;;;11.50;9.03;;;4.50;99.90;;;;;;5040281;28;20830;-78
2021/03/17 01:27:26;;;;;;;11.33;8.73;;;4.50;99.90;;;;;;5058051;28;20428;-78
2021/03/17 01:29:51;;;;;;;13.03;10.07;;;4.50;99.90;;;;;;5032553;28;20615;-79
2021/03/17 01:32:17;;;;;;;11.80;9.50;;;4.60;99.90;;;;;;5054648;28;20182;-81
2021/03/17 01:34:43;;;;;;;11.43;9.67;;;4.60;99.90;;;;;;5037909;28;20210;-79
2021/03/17 01:37:09;;;;;;;12.80;9.70;;;4.70;99.90;;;;;;5048523;28;20184;-79
2021/03/17 01:39:35;;;;;;;12.00;9.80;;;4.70;99.90;;;;;;5053553;28;20193;-81
2021/03/17 01:42:01;;;;;;;11.70;9.63;;;4.60;99.90;;;;;;5042050;28;20435;-79
2021/03/17 01:44:26;;;;;;;10.80;8.53;;;4.70;99.90;;;;;;5041991;28;20549;-81
2021/03/17 01:46:52;;;;;;;10.43;9.30;;;4.70;99.90;;;;;;5033847;28;20191;-79
2021/03/17 01:49:17;;;;;;;10.83;9.73;;;4.70;99.90;;;;;;5048358;28;20259;-81
2021/03/17 01:51:43;;;;;;;15.70;9.10;;;4.70;99.90;;;;;;5070872;28;20256;-81
2021/03/17 01:54:09;;;;;;;12.83;10.57;;;4.70;99.90;;;;;;5062197;28;20195;-81
2021/03/17 01:56:36;;;;;;;12.03;10.50;;;4.70;99.90;;;;;;5062021;28;20174;-81
2021/03/17 01:59:01;;;;;;;11.90;9.60;;;4.70;99.90;;;;;;5079548;28;20447;-80
2021/03/17 02:01:28;;;;;;;11.83;9.97;;;4.70;99.90;;;;;;5042544;28;20926;-81
2021/03/17 02:03:53;;;;;;;12.33;10.43;;;4.70;99.90;;;;;;5040116;28;20190;-80
2021/03/17 02:06:19;;;;;;;11.63;9.67;;;4.60;99.90;;;;;;5029965;28;20440;-81
2021/03/17 02:08:45;;;;;;;15.57;11.13;;;4.50;99.90;;;;;;5036971;28;20288;-78
2021/03/17 02:11:12;;;;;;;12.03;10.80;;;4.60;99.90;;;;;;5058841;28;20463;-77
2021/03/17 02:13:53;;;;;;;11.23;10.10;;;4.60;99.90;;;;;;5057565;28;20436;-80
2021/03/17 02:16:37;;;;;;;15.63;11.07;;;4.60;99.90;;;;;;5058256;28;20505;-78
2021/03/17 02:19:28;;;;;;;12.53;10.90;;;4.60;99.90;;;;;;5036662;28;20465;-78
2021/03/17 02:22:32;;;;;;;14.30;10.67;;;4.60;99.90;;;;;;5061874;28;20444;-79
2021/03/17 02:25:16;;;;;;;13.20;11.10;;;4.60;99.90;;;;;;5059267;28;20529;-79
2021/03/17 02:27:51;;;;;;;13.20;10.67;;;4.60;99.90;;;;;;5060109;28;20441;-77
2021/03/17 02:30:50;;;;;;;14.07;11.50;;;4.50;99.90;;;;;;5028621;28;21050;-79
2021/03/17 02:33:40;;;;;;;13.50;12.10;;;4.50;99.90;;;;;;5049069;28;20493;-79
2021/03/17 02:36:31;;;;;;;14.60;11.40;;;4.50;99.90;;;;;;5051931;28;20491;-81
2021/03/17 02:39:15;;;;;;;14.93;12.37;;;4.50;99.90;;;;;;5040406;28;20445;-78
2021/03/17 02:41:50;;;;;;;14.87;12.10;;;4.40;99.90;;;;;;5057064;28;20455;-79
2021/03/17 02:44:18;;;;;;;15.20;11.77;;;4.50;99.90;;;;;;5055007;28;20427;-78
2021/03/17 02:46:45;;;;;;;15.43;12.03;;;4.60;99.90;;;;;;5051730;28;20979;-81
2021/03/17 02:49:21;;;;;;;17.47;13.37;;;4.50;99.90;;;;;;5063380;28;20985;-78
2021/03/17 02:51:51;;;;;;;17.10;12.60;;;4.50;99.90;;;;;;5034383;28;20420;-79
2021/03/17 02:54:19;;;;;;;15.40;12.67;;;4.50;99.90;;;;;;5060369;28;20532;-81
2021/03/17 02:57:17;;;;;;;18.87;14.30;;;4.50;99.90;;;;;;5055973;28;20425;-79
2021/03/17 02:59:44;;;;;;;16.33;12.30;;;4.60;99.90;;;;;;5037237;28;20555;-79
2021/03/17 03:02:11;;;;;;;18.57;13.27;;;4.50;99.90;;;;;;5056801;28;20988;-79
2021/03/17 03:04:38;;;;;;;17.37;13.17;;;4.60;99.90;;;;;;5061036;28;20435;-80
2021/03/17 03:07:04;;;;;;;18.20;14.17;;;4.60;99.90;;;;;;5041811;28;20432;-79
2021/03/17 03:09:30;;;;;;;17.00;12.93;;;4.60;99.90;;;;;;5050213;28;20470;-79
2021/03/17 03:11:59;;;;;;;18.20;13.40;;;4.60;99.90;;;;;;5061755;28;20188;-78
2021/03/17 03:14:27;;;;;;;20.17;15.37;;;4.60;99.90;;;;;;5025566;28;20198;-78
2021/03/17 03:16:56;;;;;;;17.80;13.30;;;4.60;99.90;;;;;;5060481;28;20424;-79
2021/03/17 03:19:24;;;;;;;15.73;12.87;;;4.60;99.90;;;;;;5055014;28;20448;-79
2021/03/17 03:21:52;;;;;;;18.77;13.37;;;4.60;99.90;;;;;;5038851;28;20471;-79
2021/03/17 03:24:19;;;;;;;21.37;14.50;;;4.60;99.90;;;;;;5056188;28;20424;-80
2021/03/17 03:26:48;;;;;;;20.27;14.60;;;4.60;99.90;;;;;;5030081;28;20481;-79
2021/03/17 03:29:13;;;;;;;18.80;13.80;;;4.60;99.90;;;;;;5057136;28;20562;-78
2021/03/17 03:31:39;;;;;;;19.83;14.43;;;4.50;99.90;;;;;;5056681;28;20554;-81
2021/03/17 03:34:05;;;;;;;20.50;14.27;;;4.50;99.90;;;;;;5041137;28;20630;-79
2021/03/17 03:36:30;;;;;;;19.07;15.10;;;4.60;99.90;;;;;;5041512;28;20170;-80
2021/03/17 03:39:00;;;;;;;20.97;15.57;;;4.60;99.90;;;;;;5045066;28;20212;-79
2021/03/17 03:41:27;;;;;;;19.90;14.23;;;4.60;99.90;;;;;;5056176;28;20572;-78
2021/03/17 03:43:53;;;;;;;20.37;14.33;;;4.60;99.90;;;;;;5041042;28;20447;-79
2021/03/17 03:46:18;;;;;;;19.80;14.10;;;4.60;99.90;;;;;;5045015;28;20930;-79
2021/03/17 03:48:44;;;;;;;23.73;15.00;;;4.50;99.90;;;;;;5038585;28;20208;-79
2021/03/17 03:51:10;;;;;;;26.40;15.57;;;4.60;99.90;;;;;;5058983;28;20536;-78
2021/03/17 03:53:49;;;;;;;21.83;15.27;;;4.60;99.90;;;;;;5034407;28;20189;-78
2021/03/17 03:56:22;;;;;;;20.47;15.53;;;4.50;99.90;;;;;;5038521;28;20256;-78
2021/03/17 03:59:10;;;;;;;21.83;14.33;;;4.50;99.90;;;;;;5060590;28;20444;-79
2021/03/17 04:01:56;;;;;;;24.43;17.17;;;4.50;99.90;;;;;;5047127;28;20511;-78
2021/03/17 04:04:23;;;;;;;24.03;16.83;;;4.50;99.90;;;;;;5044808;28;20408;-80
2021/03/17 04:06:55;;;;;;;22.80;15.80;;;4.60;99.90;;;;;;5053215;28;20503;-80
2021/03/17 04:09:26;;;;;;;23.50;15.77;;;4.60;99.90;;;;;;5039281;28;20483;-78
2021/03/17 04:11:56;;;;;;;23.50;16.87;;;4.60;99.90;;;;;;5039313;28;21073;-78
2021/03/17 04:14:22;;;;;;;23.20;16.00;;;4.60;99.90;;;;;;5037570;28;20501;-78
2021/03/17 04:16:52;;;;;;;24.97;15.73;;;4.70;99.90;;;;;;5059034;28;20424;-82
2021/03/17 04:19:20;;;;;;;19.87;14.90;;;4.60;99.90;;;;;;5078514;28;20436;-79
2021/03/17 04:21:47;;;;;;;23.47;15.80;;;4.60;99.90;;;;;;5073018;28;20454;-78
2021/03/17 04:24:14;;;;;;;24.20;18.10;;;4.70;99.90;;;;;;5062447;28;20421;-80
2021/03/17 04:26:39;;;;;;;24.27;16.53;;;4.70;99.90;;;;;;5057146;28;20420;-79
2021/03/17 04:29:06;;;;;;;23.70;17.07;;;4.70;99.90;;;;;;5058302;28;20471;-79
2021/03/17 04:31:33;;;;;;;21.70;16.93;;;4.60;99.90;;;;;;5059884;28;20257;-79
2021/03/17 04:33:59;;;;;;;22.03;15.37;;;4.60;99.90;;;;;;5051768;28;20430;-79
2021/03/17 04:36:26;;;;;;;25.23;15.90;;;4.60;99.90;;;;;;5059021;28;20460;-80
2021/03/17 04:38:52;;;;;;;26.03;18.37;;;4.70;99.90;;;;;;5045374;28;20956;-78
2021/03/17 04:41:19;;;;;;;29.03;17.17;;;4.70;99.90;;;;;;5063783;28;20417;-78
2021/03/17 04:43:46;;;;;;;27.80;17.23;;;4.50;99.90;;;;;;5044350;28;20432;-80
2021/03/17 04:46:13;;;;;;;21.40;15.60;;;4.60;99.90;;;;;;5055588;28;20854;-77
2021/03/17 04:48:42;;;;;;;25.77;18.30;;;4.60;99.90;;;;;;5048959;28;20452;-79
2021/03/17 04:51:09;;;;;;;26.40;18.63;;;4.60;99.90;;;;;;5070304;28;20697;-78
2021/03/17 04:53:34;;;;;;;21.70;16.10;;;4.50;99.90;;;;;;5062367;28;20436;-79
2021/03/17 04:56:05;;;;;;;26.73;18.70;;;4.40;99.90;;;;;;5064356;28;21047;-79
2021/03/17 04:58:32;;;;;;;27.10;18.50;;;4.40;99.90;;;;;;5067508;28;20198;-79
2021/03/17 05:01:03;;;;;;;25.47;16.50;;;4.40;99.90;;;;;;5059059;28;20413;-80
2021/03/17 05:03:29;;;;;;;28.27;18.30;;;4.50;99.90;;;;;;5066871;28;20966;-78
2021/03/17 05:05:56;;;;;;;27.33;17.97;;;4.50;99.90;;;;;;5064970;28;20951;-77
2021/03/17 05:08:23;;;;;;;22.37;15.43;;;4.40;99.90;;;;;;5065618;28;21003;-80
2021/03/17 05:10:49;;;;;;;27.37;17.53;;;4.40;99.90;;;;;;5060309;28;20439;-79
2021/03/17 05:13:16;;;;;;;25.40;17.40;;;4.30;99.90;;;;;;5062419;28;20424;-79
2021/03/17 05:15:44;;;;;;;21.10;15.30;;;4.40;99.90;;;;;;5061561;28;20478;-79
2021/03/17 05:18:16;;;;;;;23.47;17.40;;;4.30;99.90;;;;;;5059074;28;20483;-77
2021/03/17 05:20:45;;;;;;;23.80;15.97;;;4.30;99.90;;;;;;5061466;28;20430;-79
2021/03/17 05:23:13;;;;;;;23.33;14.87;;;4.30;99.90;;;;;;5060216;28;20504;-79
2021/03/17 05:25:39;;;;;;;23.13;16.50;;;4.20;99.90;;;;;;5058200;28;20502;-78
2021/03/17 05:28:05;;;;;;;23.03;16.37;;;4.30;99.90;;;;;;5059626;28;20449;-80
2021/03/17 05:30:33;;;;;;;24.33;14.70;;;4.20;99.90;;;;;;5063050;28;20961;-79
2021/03/17 05:33:00;;;;;;;22.27;14.67;;;4.10;99.90;;;;;;5061172;28;20190;-79
2021/03/17 05:35:26;;;;;;;22.63;15.00;;;4.00;99.90;;;;;;5057476;28;20467;-78
2021/03/17 05:37:52;;;;;;;22.07;14.00;;;3.90;99.90;;;;;;5059878;28;20879;-80
2021/03/17 05:40:18;;;;;;;24.13;16.23;;;3.90;99.90;;;;;;5059419;28;20459;-79
2021/03/17 05:42:44;;;;;;;22.23;15.73;;;3.90;99.90;;;;;;5064968;28;20592;-79
2021/03/17 05:45:21;;;;;;;27.37;17.13;;;3.90;99.90;;;;;;5064342;28;20425;-79
2021/03/17 05:47:49;;;;;;;22.70;15.10;;;3.90;99.90;;;;;;5068557;28;20430;-78
2021/03/17 05:50:17;;;;;;;22.60;14.80;;;3.80;99.90;;;;;;5064861;28;20439;-78
2021/03/17 05:52:43;;;;;;;18.93;15.30;;;3.80;99.90;;;;;;5067503;28;20424;-80
2021/03/17 05:55:10;;;;;;;22.73;15.33;;;3.90;99.90;;;;;;5065000;28;20467;-80
2021/03/17 05:57:37;;;;;;;24.30;16.33;;;3.90;99.90;;;;;;5066079;28;20416;-77
2021/03/17 06:00:08;;;;;;;23.70;15.73;;;4.00;99.90;;;;;;5063582;28;20428;-81
2021/03/17 06:02:36;;;;;;;22.93;15.00;;;3.90;99.90;;;;;;5060696;28;20424;-78
2021/03/17 06:05:04;;;;;;;23.00;14.10;;;3.90;99.90;;;;;;5063622;28;20427;-79
2021/03/17 06:07:40;;;;;;;23.07;15.40;;;3.90;99.90;;;;;;5065769;28;20837;-77
2021/03/17 06:10:07;;;;;;;23.17;15.53;;;4.00;99.90;;;;;;5062483;28;20471;-78
2021/03/17 06:12:35;;;;;;;23.27;17.87;;;4.20;99.90;;;;;;5069547;28;20428;-77
2021/03/17 06:15:02;;;;;;;30.23;17.97;;;4.10;99.90;;;;;;5069252;28;20482;-79
2021/03/17 06:17:30;;;;;;;25.83;16.80;;;4.20;99.90;;;;;;5063158;28;20421;-81
2021/03/17 06:20:05;;;;;;;24.57;17.20;;;4.20;99.90;;;;;;5062424;28;20436;-79
2021/03/17 06:22:31;;;;;;;25.43;16.57;;;4.30;99.90;;;;;;5065362;28;20625;-79
2021/03/17 06:24:57;;;;;;;25.93;16.10;;;4.30;99.90;;;;;;5063251;28;20524;-80
2021/03/17 06:27:24;;;;;;;26.27;17.50;;;4.40;99.90;;;;;;5060549;28;20446;-80
2021/03/17 06:29:50;;;;;;;22.57;16.80;;;4.50;99.90;;;;;;5062317;28;20525;-79
2021/03/17 06:32:16;;;;;;;24.97;17.13;;;4.40;99.90;;;;;;5069261;28;20433;-78
2021/03/17 06:34:48;;;;;;;21.27;15.43;;;4.40;99.90;;;;;;5055152;28;20198;-80
2021/03/17 06:37:15;;;;;;;21.27;14.23;;;4.40;99.90;;;;;;5066906;28;20181;-76
2021/03/17 06:39:41;;;;;;;19.47;15.60;;;4.30;99.90;;;;;;5069082;28;20436;-77
2021/03/17 06:42:08;;;;;;;23.77;16.20;;;4.30;99.90;;;;;;5067494;28;20902;-78
2021/03/17 06:44:33;;;;;;;23.40;15.03;;;4.40;99.90;;;;;;5068654;28;20776;-77
2021/03/17 06:47:19;;;;;;;21.43;16.40;;;4.40;99.90;;;;;;5066986;28;20443;-79
2021/03/17 06:49:47;;;;;;;25.57;15.73;;;4.50;99.90;;;;;;5073465;28;20201;-78
2021/03/17 06:52:35;;;;;;;23.63;16.50;;;4.50;99.90;;;;;;5074093;28;20456;-78
2021/03/17 06:55:14;;;;;;;25.60;17.73;;;4.70;99.90;;;;;;5073469;28;20520;-76
2021/03/17 06:57:47;;;;;;;21.33;15.30;;;4.80;99.90;;;;;;5075105;28;20427;-79
2021/03/17 07:00:26;;;;;;;22.73;15.97;;;4.80;99.90;;;;;;5072167;28;20483;-79
2021/03/17 07:03:13;;;;;;;21.87;15.70;;;4.70;99.90;;;;;;5078368;28;20420;-78
2021/03/17 07:05:39;;;;;;;22.70;15.13;;;4.80;99.90;;;;;;5068048;28;20532;-79
2021/03/17 07:08:08;;;;;;;19.80;14.17;;;4.70;99.90;;;;;;5078464;28;20432;-78
2021/03/17 07:10:40;;;;;;;20.90;15.60;;;4.70;99.90;;;;;;5071347;28;20192;-78
2021/03/17 07:13:08;;;;;;;22.90;15.17;;;4.70;99.90;;;;;;5074646;28;20471;-77
2021/03/17 07:15:37;;;;;;;21.70;15.30;;;4.80;99.90;;;;;;5074530;28;20464;-79
2021/03/17 07:18:32;;;;;;;18.90;16.13;;;4.70;99.90;;;;;;5062043;28;20428;-79
2021/03/17 07:21:02;;;;;;;21.60;16.43;;;4.80;99.90;;;;;;4961300;28;20449;-78
2021/03/17 07:23:33;;;;;;;22.73;15.47;;;4.70;99.90;;;;;;4965689;28;20410;-79
2021/03/17 07:26:19;;;;;;;22.70;14.90;;;4.70;99.90;;;;;;4969301;28;20470;-77
2021/03/17 07:28:47;;;;;;;20.40;14.47;;;4.80;99.90;;;;;;4969314;28;20851;-79
2021/03/17 07:31:26;;;;;;;23.30;14.43;;;4.80;99.90;;;;;;4961906;28;20433;-79
2021/03/17 07:33:53;;;;;;;19.70;13.77;;;4.90;99.90;;;;;;4964532;28;20523;-79
2021/03/17 07:36:58;;;;;;;21.80;14.00;;;4.80;99.90;;;;;;4951675;28;20853;-79
2021/03/17 07:39:31;;;;;;;21.10;14.23;;;4.80;99.90;;;;;;4963479;28;20487;-79
2021/03/17 07:41:59;;;;;;;18.70;12.73;;;4.80;99.90;;;;;;4961749;28;20428;-79
2021/03/17 07:44:26;;;;;;;19.10;15.30;;;4.90;99.90;;;;;;4946388;28;20515;-79
2021/03/17 07:46:57;;;;;;;20.87;13.50;;;4.90;99.90;;;;;;4961540;28;20518;-77
2021/03/17 07:49:25;;;;;;;20.60;15.00;;;5.00;99.90;;;;;;4956829;28;20459;-78
2021/03/17 07:51:53;;;;;;;19.43;13.63;;;5.00;99.90;;;;;;4974051;28;20425;-78
2021/03/17 07:54:26;;;;;;;18.33;12.97;;;4.70;99.90;;;;;;4963363;28;20428;-79
2021/03/17 07:56:51;;;;;;;23.03;14.10;;;4.70;99.90;;;;;;4990045;28;20428;-78
2021/03/17 07:59:19;;;;;;;18.93;13.07;;;4.70;99.90;;;;;;5061465;28;20836;-80
2021/03/17 08:01:46;;;;;;;22.10;14.60;;;4.70;99.90;;;;;;5055017;28;20670;-78
2021/03/17 08:04:14;;;;;;;20.77;14.53;;;4.70;99.90;;;;;;5060711;28;20441;-80
2021/03/17 08:06:40;;;;;;;22.23;14.50;;;4.70;99.90;;;;;;5061637;28;20909;-79
2021/03/17 08:09:05;;;;;;;17.00;13.23;;;4.70;99.90;;;;;;5061853;28;20960;-78
2021/03/17 08:11:32;;;;;;;21.63;13.20;;;4.70;99.90;;;;;;5062230;28;20470;-78
2021/03/17 08:13:58;;;;;;;19.97;12.43;;;4.70;99.90;;;;;;5058538;28;20188;-78
2021/03/17 08:16:27;;;;;;;19.30;13.47;;;4.60;99.90;;;;;;5056681;28;20448;-77
2021/03/17 08:18:53;;;;;;;19.20;13.60;;;4.50;99.90;;;;;;5058167;28;20222;-76
2021/03/17 08:21:45;;;;;;;18.67;12.90;;;4.50;99.90;;;;;;5056650;28;20900;-78
2021/03/17 08:24:34;;;;;;;19.87;13.77;;;4.60;99.90;;;;;;5046382;28;20477;-78
2021/03/17 08:27:15;;;;;;;21.93;13.37;;;4.50;99.90;;;;;;5067702;28;20461;-79
2021/03/17 08:29:46;;;;;;;20.13;13.77;;;4.60;99.90;;;;;;5053405;28;20452;-79
2021/03/17 08:32:14;;;;;;;16.90;12.77;;;4.80;99.90;;;;;;5066927;28;20408;-79
2021/03/17 08:34:47;;;;;;;19.53;12.70;;;4.80;99.90;;;;;;5058077;28;20457;-77
2021/03/17 08:37:13;;;;;;;15.97;11.57;;;4.90;99.90;;;;;;5064283;28;20532;-80
2021/03/17 08:39:46;;;;;;;17.60;12.43;;;5.00;99.90;;;;;;5061937;28;20903;-79
2021/03/17 08:42:28;;;;;;;16.03;10.73;;;5.10;99.90;;;;;;5061836;28;20181;-79
2021/03/17 08:44:56;;;;;;;15.53;10.57;;;5.10;99.90;;;;;;5069257;28;20431;-78
2021/03/17 08:47:42;;;;;;;12.03;9.13;;;5.10;99.90;;;;;;5064870;28;20435;-79
2021/03/17 08:50:30;;;;;;;14.07;9.90;;;5.00;99.90;;;;;;5062923;28;20539;-80
2021/03/17 08:52:55;;;;;;;14.13;9.67;;;5.10;99.90;;;;;;5062461;28;20947;-79
2021/03/17 08:55:37;;;;;;;12.43;8.73;;;5.20;99.90;;;;;;5059821;28;20473;-79
2021/03/17 08:58:07;;;;;;;14.13;9.87;;;5.30;99.90;;;;;;5064176;28;20420;-80
2021/03/17 09:00:47;;;;;;;17.63;10.67;;;5.40;99.90;;;;;;5059323;28;20409;-79
2021/03/17 09:03:31;;;;;;;14.80;9.80;;;5.50;99.90;;;;;;5066385;28;20422;-79
2021/03/17 09:06:19;;;;;;;17.67;10.67;;;5.70;99.90;;;;;;5056946;28;20475;-80
2021/03/17 09:08:49;;;;;;;14.90;10.27;;;5.80;99.90;;;;;;5064336;28;20476;-78
2021/03/17 09:11:30;;;;;;;15.13;10.30;;;5.90;99.90;;;;;;5061925;28;20420;-79
2021/03/17 09:14:04;;;;;;;15.33;10.90;;;5.90;99.90;;;;;;5059501;28;20419;-78
2021/03/17 09:16:31;;;;;;;15.30;11.10;;;5.80;99.90;;;;;;5066623;28;20460;-78
2021/03/17 09:19:13;;;;;;;16.60;11.43;;;5.80;99.90;;;;;;5064912;28;20436;-78
2021/03/17 09:21:41;;;;;;;13.90;9.60;;;5.70;99.90;;;;;;5065893;28;20416;-80
2021/03/17 09:24:33;;;;;;;16.00;11.67;;;5.80;99.90;;;;;;5057631;28;20920;-79
2021/03/17 09:27:07;;;;;;;15.20;11.80;;;6.00;99.90;;;;;;5065292;28;20423;-79
2021/03/17 09:29:34;;;;;;;16.20;11.50;;;6.00;99.90;;;;;;5063820;28;20445;-80
2021/03/17 09:32:02;;;;;;;16.53;11.47;;;5.90;99.90;;;;;;5070664;28;20404;-79
2021/03/17 09:34:33;;;;;;;12.60;9.80;;;6.00;99.90;;;;;;5065415;28;20515;-80
2021/03/17 09:37:08;;;;;;;14.10;9.57;;;6.00;99.90;;;;;;5065333;28;20428;-80
2021/03/17 09:39:34;;;;;;;13.30;11.10;;;5.80;99.90;;;;;;5070821;28;20549;-80
2021/03/17 09:42:00;;;;;;;13.97;9.53;;;5.70;99.90;;;;;;5074220;28;20424;-78
2021/03/17 09:44:26;;;;;;;14.70;9.50;;;5.70;99.90;;;;;;5075436;28;20415;-77
2021/03/17 09:46:53;;;;;;;15.30;9.70;;;5.70;99.90;;;;;;5068646;28;20467;-78
2021/03/17 09:49:26;;;;;;;13.90;9.57;;;5.80;99.90;;;;;;5062645;28;20219;-80
2021/03/17 09:51:54;;;;;;;12.60;9.10;;;5.90;99.90;;;;;;5048337;28;21336;-78
2021/03/17 09:54:22;;;;;;;12.37;9.07;;;6.00;99.90;;;;;;5035159;28;20420;-79
2021/03/17 09:57:01;;;;;;;9.60;7.80;;;5.90;99.90;;;;;;5066519;28;20431;-78
2021/03/17 09:59:34;;;;;;;13.60;10.03;;;5.90;99.90;;;;;;5047218;28;20435;-78
2021/03/17 10:02:02;;;;;;;14.20;9.57;;;6.00;99.90;;;;;;5065885;28;20529;-80
2021/03/17 10:04:43;;;;;;;10.20;7.90;;;6.20;99.90;;;;;;5072263;28;20451;-79
2021/03/17 10:07:11;;;;;;;10.20;7.33;;;6.40;99.90;;;;;;5074477;28;20418;-78
2021/03/17 10:09:37;;;;;;;10.17;8.47;;;6.30;99.90;;;;;;5077368;28;20450;-79
2021/03/17 10:12:05;;;;;;;8.53;7.30;;;6.20;99.90;;;;;;5067938;28;20457;-78
2021/03/17 10:14:31;;;;;;;6.90;6.20;;;6.20;99.90;;;;;;5054293;28;20461;-78
2021/03/17 10:16:59;;;;;;;8.90;7.23;;;6.10;99.90;;;;;;5071971;28;20420;-80
2021/03/17 10:19:25;;;;;;;8.50;7.00;;;6.10;99.90;;;;;;5048878;28;20436;-79
2021/03/17 10:21:53;;;;;;;9.90;6.10;;;6.20;99.90;;;;;;5067917;28;20450;-79
2021/03/17 10:24:39;;;;;;;10.27;7.57;;;6.20;99.90;;;;;;5060769;28;20400;-80
2021/03/17 10:27:11;;;;;;;9.03;7.40;;;6.10;99.90;;;;;;5063312;28;20494;-80
2021/03/17 10:29:39;;;;;;;12.10;8.10;;;6.00;99.90;;;;;;5061162;28;20550;-79
2021/03/17 10:32:06;;;;;;;8.63;6.63;;;6.10;99.90;;;;;;5072467;28;20420;-77
2021/03/17 10:34:32;;;;;;;9.10;6.40;;;6.10;99.90;;;;;;5049183;28;20413;-78
2021/03/17 10:36:58;;;;;;;6.53;5.73;;;6.00;99.90;;;;;;5068191;28;20505;-79
2021/03/17 10:39:32;;;;;;;5.83;5.10;;;5.80;99.90;;;;;;5069595;28;20308;-78
2021/03/17 10:41:58;;;;;;;5.13;4.53;;;5.70;99.90;;;;;;5052783;28;20464;-78
2021/03/17 10:44:27;;;;;;;5.63;4.50;;;5.70;99.90;;;;;;5072264;28;20446;-79
2021/03/17 10:47:08;;;;;;;5.40;4.90;;;5.60;99.90;;;;;;5071026;28;20420;-80
2021/03/17 10:49:44;;;;;;;6.40;4.40;;;5.70;99.90;;;;;;5058191;28;20447;-79
2021/03/17 10:52:10;;;;;;;4.40;3.77;;;5.80;99.90;;;;;;5064077;28;20837;-78
2021/03/17 10:54:43;;;;;;;5.40;4.10;;;6.00;99.90;;;;;;5046981;28;20519;-79
2021/03/17 10:57:21;;;;;;;5.77;5.07;;;6.20;99.90;;;;;;5062825;28;20189;-79
2021/03/17 10:59:47;;;;;;;4.87;4.37;;;6.30;99.90;;;;;;5069824;28;20440;-78
2021/03/17 11:02:30;;;;;;;7.70;5.10;;;6.50;99.90;;;;;;5062939;28;20435;-79
2021/03/17 11:05:23;;;;;;;9.50;7.43;;;6.50;99.90;;;;;;5045336;28;20181;-79
2021/03/17 11:07:56;;;;;;;9.90;7.90;;;6.60;99.90;;;;;;4952035;28;20429;-79
2021/03/17 11:10:35;;;;;;;9.03;7.30;;;6.60;99.90;;;;;;4966845;28;20437;-80
2021/03/17 11:13:21;;;;;;;10.97;8.27;;;6.50;99.90;;;;;;4972728;28;20459;-78
2021/03/17 11:16:03;;;;;;;13.30;9.40;;;6.30;99.90;;;;;;4983748;28;20460;-78
2021/03/17 11:18:39;;;;;;;10.13;8.60;;;6.30;99.90;;;;;;4964915;28;20448;-79
2021/03/17 11:21:08;;;;;;;10.30;8.60;;;6.20;99.90;;;;;;4972327;28;20496;-79
2021/03/17 11:23:38;;;;;;;11.30;8.50;;;6.10;99.90;;;;;;4970631;28;20436;-79
2021/03/17 11:26:07;;;;;;;12.80;9.30;;;6.20;99.90;;;;;;4956994;28;20520;-78
2021/03/17 11:28:40;;;;;;;8.30;7.43;;;6.20;99.90;;;;;;4971872;28;20987;-80
2021/03/17 11:31:09;;;;;;;9.40;7.23;;;6.20;99.90;;;;;;4972678;28;20523;-80
2021/03/17 11:33:34;;;;;;;9.23;6.80;;;6.40;99.90;;;;;;4959583;28;20523;-78
2021/03/17 11:36:02;;;;;;;6.07;5.33;;;6.70;99.90;;;;;;4962695;28;21044;-80
2021/03/17 11:38:28;;;;;;;6.10;5.50;;;7.00;99.90;;;;;;4955024;28;20761;-80
2021/03/17 11:40:55;;;;;;;6.67;5.40;;;6.80;99.90;;;;;;4972057;28;20453;-79
2021/03/17 11:43:27;;;;;;;7.27;5.07;;;6.80;99.90;;;;;;4970702;28;20447;-80
2021/03/17 11:45:54;;;;;;;6.53;4.77;;;6.90;99.90;;;;;;5045724;28;20479;-79
2021/03/17 11:48:21;;;;;;;3.70;3.40;;;6.80;99.90;;;;;;5037888;28;20456;-81
2021/03/17 11:50:50;;;;;;;5.20;4.10;;;6.80;99.90;;;;;;5071237;28;20944;-78
2021/03/17 11:53:17;;;;;;;4.13;3.70;;;6.80;99.90;;;;;;5064773;28;20425;-79
2021/03/17 11:55:43;;;;;;;5.03;3.40;;;6.80;99.90;;;;;;5052957;28;20485;-78
2021/03/17 11:58:09;;;;;;;5.10;2.90;;;7.00;99.90;;;;;;5048645;28;20494;-81
2021/03/17 12:00:35;;;;;;;4.20;3.23;;;7.20;99.90;;;;;;5062215;28;20184;-81
2021/03/17 12:03:01;;;;;;;2.67;1.93;;;7.40;99.90;;;;;;5056162;28;20432;-80
2021/03/17 12:05:27;;;;;;;1.80;1.70;;;7.40;99.90;;;;;;5070855;28;20476;-80
2021/03/17 12:07:53;;;;;;;3.80;1.90;;;7.30;99.90;;;;;;5078037;28;20193;-82
2021/03/17 12:10:19;;;;;;;1.50;1.07;;;7.10;99.90;;;;;;5064569;28;20440;-81
2021/03/17 12:12:45;;;;;;;3.23;1.43;;;6.90;99.90;;;;;;5076073;28;20201;-80
2021/03/17 12:15:15;;;;;;;1.60;1.50;;;6.90;99.90;;;;;;5081623;28;20447;-79
2021/03/17 12:17:41;;;;;;;3.93;1.67;;;6.80;99.90;;;;;;5071787;28;20504;-79
2021/03/17 12:20:09;;;;;;;1.80;1.40;;;6.80;99.90;;;;;;5077829;28;20456;-80
2021/03/17 12:22:35;;;;;;;2.70;1.40;;;6.90;99.90;;;;;;5049176;28;20182;-81
2021/03/17 12:25:01;;;;;;;3.37;1.53;;;6.90;99.90;;;;;;5066023;28;20467;-80
2021/03/17 12:27:28;;;;;;;2.43;1.67;;;6.70;99.90;;;;;;5055765;28;20425;-80
2021/03/17 12:29:54;;;;;;;3.30;1.70;;;6.50;99.90;;;;;;5080170;28;20460;-78
2021/03/17 12:32:20;;;;;;;3.13;1.40;;;6.30;99.90;;;;;;5069139;28;20439;-78
2021/03/17 12:34:46;;;;;;;2.00;1.60;;;6.20;99.90;;;;;;5077404;28;20225;-79
2021/03/17 12:37:12;;;;;;;1.93;1.40;;;6.40;99.90;;;;;;5064331;28;20205;-79
2021/03/17 12:39:39;;;;;;;3.97;1.83;;;6.60;99.90;;;;;;5062519;28;20520;-79
2021/03/17 12:42:05;;;;;;;1.50;1.40;;;6.80;99.90;;;;;;5045202;28;20493;-80
2021/03/17 12:44:32;;;;;;;2.77;1.80;;;7.00;99.90;;;;;;5044783;28;20417;-80
2021/03/17 12:46:58;;;;;;;5.33;1.50;;;7.20;99.90;;;;;;5062128;28;20554;-78
2021/03/17 12:49:25;;;;;;;5.30;2.17;;;7.30;99.90;;;;;;5065483;28;20478;-79
2021/03/17 12:51:50;;;;;;;2.27;1.47;;;7.70;99.90;;;;;;5046258;28;20554;-81
2021/03/17 12:54:16;;;;;;;2.43;1.53;;;7.70;99.90;;;;;;5062423;28;20459;-78
2021/03/17 12:56:41;;;;;;;2.20;1.50;;;7.80;99.90;;;;;;5061517;28;20213;-81
2021/03/17 12:59:07;;;;;;;2.20;1.20;;;7.90;99.90;;;;;;5044886;28;20749;-81